Latest Weather Observations for Mudgee

IDN60801

Issued at 4:02 pm EST Tuesday 24 May 2016 (issued every 30 minutes, with the page automatically refreshed every 10 minutes)

About weather observations | Map of weather stations | Latest weather observations for NSW | Other Formats
Station Details ID: 062101 Name: MUDGEE AIRPORT AWS Lat: -32.56 Lon: 149.61 Height: 471.0 m
Data from the previous 72 hours. | See also: Recent months at Mudgee
Date/Time
EST
Temp
°C
App
Temp
°C
Dew
Point
Rel
Hum
%
Delta-T
°C
Wind Press
QNH
hPa
Press
MSL
hPa
Rain
since 9 am
mm
Dir
 
Spd
km/h
Gust
km/h
Spd
kts
Gust
kts
24/04:00pm 15.2 9.8 2.7 43 5.7 W 20 30 11 16 1019.0 1018.9 0.0
24/03:30pm 15.4 9.4 1.2 38 6.3 WSW 22 30 12 16 1018.8 1018.7 0.0
24/03:00pm 15.6 9.2 1.0 37 6.5 WSW 24 37 13 20 1018.8 1018.7 0.0
24/02:30pm 15.8 9.1 1.2 37 6.5 W 26 32 14 17 1018.7 1018.6 0.0
24/02:00pm 15.7 9.8 1.8 39 6.3 W 22 32 12 17 1018.7 1018.6 0.0
24/01:30pm 15.3 9.4 1.8 40 6.1 W 22 32 12 17 1018.8 1018.7 0.0
24/01:00pm 15.3 9.6 3.1 44 5.7 W 22 28 12 15 1019.1 1019.0 0.0
24/12:30pm 15.2 9.6 3.4 45 5.5 WNW 22 32 12 17 1019.4 1019.3 0.0
24/12:00pm 14.4 8.2 2.0 43 5.6 WSW 24 35 13 19 1020.0 1019.9 0.0
24/11:30am 14.4 8.8 3.2 47 5.2 W 22 32 12 17 1020.4 1020.3 0.0
24/11:00am 13.8 7.9 4.1 52 4.5 WSW 24 30 13 16 1020.9 1020.8 0.0
24/10:30am 13.5 7.5 5.2 57 4.0 WSW 26 35 14 19 1021.2 1021.2 0.0
24/10:00am 12.8 8.1 5.9 63 3.3 WSW 20 32 11 17 1021.8 1021.7 0.0
24/09:30am 11.7 6.1 5.6 66 2.9 W 24 35 13 19 1022.1 1022.0 0.0
24/09:00am 10.2 5.8 5.0 70 2.4 W 17 20 9 11 1022.0 1021.9 0.0
24/08:30am 6.7 4.1 4.2 84 1.1 N 7 9 4 5 1021.9 1021.8 0.0
24/08:00am 4.1 0.9 2.9 92 0.5 NNE 9 13 5 7 1021.4 1021.4 0.0
24/07:30am 1.9 -1.6 1.5 97 0.2 NNE 9 11 5 6 1021.4 1021.4 0.0
24/07:00am 1.1 -2.9 0.7 97 0.2 NNE 11 13 6 7 1021.1 1021.1 0.0
24/06:30am 1.1 -3.6 0.7 97 0.2 NNE 15 15 8 8 1021.0 1021.0 0.0
24/06:00am 1.0 -3.1 0.0 93 0.4 NNE 11 13 6 7 1020.8 1020.7 0.0
24/05:30am 1.8 -2.6 0.6 92 0.5 N 13 15 7 8 1020.9 1020.8 0.0
24/05:00am 1.8 -1.9 -0.3 86 0.8 NNE 9 11 5 6 1020.8 1020.7 0.0
24/04:30am 4.0 0.1 1.4 83 1.0 NNE 11 13 6 7 1020.8 1020.7 0.0
24/04:00am 4.6 1.2 1.6 81 1.2 NNE 9 11 5 6 1021.0 1021.0 0.0
24/03:30am 4.5 1.6 1.5 81 1.2 NNW 6 11 3 6 1020.8 1020.7 0.0
24/03:00am 3.9 0.9 0.8 80 1.2 NNW 6 9 3 5 1020.9 1020.8 0.0
24/02:30am 5.5 3.7 1.1 73 1.8 CALM 0 7 0 4 1020.8 1020.7 0.0
24/02:00am 6.5 4.8 1.8 72 2.0 CALM 0 0 0 0 1020.9 1020.8 0.0
24/01:30am 6.5 3.7 2.0 73 1.9 WSW 6 11 3 6 1021.0 1021.0 0.0
24/01:00am 7.9 4.2 2.4 68 2.3 WSW 11 17 6 9 1021.0 1021.0 0.0
24/12:30am 7.6 3.1 2.1 68 2.3 WSW 15 20 8 11 1021.1 1021.1 0.0
24/12:00am 6.0 1.3 1.2 71 2.0 WSW 15 17 8 9 1021.3 1021.3 0.0
 
Date/Time
EST
Temp
°C
App
Temp
°C
Dew
Point
Rel
Hum
%
Delta-T
°C
Wind Press
QNH
hPa
Press
MSL
hPa
Rain
since 9 am
mm
Dir
 
Spd
km/h
Gust
km/h
Spd
kts
Gust
kts
23/11:30pm 8.0 3.9 2.5 68 2.4 W 13 17 7 9 1021.5 1021.5 0.0
23/11:00pm 8.1 3.9 1.7 64 2.7 W 13 17 7 9 1021.5 1021.5 0.0
23/10:30pm 8.6 4.8 1.7 62 2.9 W 11 15 6 8 1021.7 1021.6 0.0
23/10:00pm 8.9 5.1 1.6 60 3.1 W 11 15 6 8 1021.5 1021.5 0.0
23/09:30pm 9.6 6.1 1.5 57 3.5 WSW 9 11 5 6 1021.3 1021.3 0.0
23/09:00pm 9.5 5.2 1.2 56 3.5 SW 13 15 7 8 1021.2 1021.2 0.0
23/08:30pm 11.0 6.4 1.5 52 4.1 SW 15 22 8 12 1020.8 1020.7 0.0
23/08:00pm 11.5 7.4 2.5 54 4.0 SSW 13 20 7 11 1020.7 1020.6 0.0
23/07:30pm 11.2 7.2 2.8 56 3.7 WSW 13 17 7 9 1020.5 1020.4 0.0
23/07:00pm 10.8 6.7 2.1 55 3.8 WSW 13 19 7 10 1020.4 1020.3 0.0
23/06:30pm 12.9 8.5 2.5 49 4.7 WSW 15 26 8 14 1020.1 1020.0 0.0
23/06:00pm 13.5 7.6 1.8 45 5.2 WSW 22 35 12 19 1019.6 1019.5 0.0
23/05:30pm 14.2 8.7 2.1 44 5.5 SW 20 30 11 16 1018.9 1018.8 0.0
23/05:00pm 14.5 8.8 3.0 46 5.3 WSW 22 32 12 17 1018.3 1018.2 0.0
23/04:30pm 15.9 9.0 2.7 41 6.1 WSW 28 35 15 19 1018.2 1018.1 0.0
23/04:00pm 16.9 10.9 3.2 40 6.4 WSW 24 32 13 17 1018.0 1017.9 0.0
23/03:30pm 17.4 10.3 1.4 34 7.3 W 28 44 15 24 1017.8 1017.7 0.0
23/03:00pm 18.0 12.4 5.6 44 6.2 WSW 24 32 13 17 1017.8 1017.7 0.0
23/02:30pm 17.1 11.6 6.0 48 5.5 WSW 24 33 13 18 1017.7 1017.6 0.0
23/02:00pm 17.3 10.2 5.6 46 5.8 WSW 32 44 17 24 1017.7 1017.6 0.0
23/01:30pm 17.9 11.7 6.1 46 5.9 WSW 28 39 15 21 1017.7 1017.6 0.0
23/01:00pm 18.5 14.3 11.1 62 4.1 SW 24 35 13 19 1017.7 1017.6 0.0
23/12:30pm 18.7 14.2 11.3 62 4.1 WSW 26 41 14 22 1017.7 1017.6 0.0
23/12:00pm 19.3 13.4 10.6 57 4.8 WSW 32 43 17 23 1017.9 1017.8 0.0
23/11:30am 19.7 14.4 11.2 58 4.8 WNW 30 43 16 23 1018.1 1018.0 0.0
23/11:00am 20.1 13.8 11.1 56 5.0 W 35 46 19 25 1018.3 1018.2 0.0
23/10:48am 20.1 15.1 11.1 56 5.0 W 28 43 15 23 1018.3 1018.2 0.0
23/10:30am 20.0 16.0 11.8 59 4.7 WNW 24 32 13 17 1018.4 1018.3 0.0
23/10:00am 17.5 15.9 13.8 79 2.1 NNW 15 19 8 10 1018.9 1018.8 0.0
23/09:30am 14.7 13.9 12.9 89 1.0 NNE 9 13 5 7 1019.2 1019.2 0.0
23/09:00am 13.0 13.8 12.7 98 0.2 CALM 0 0 0 0 1019.5 1019.4 0.0
23/08:30am 11.0 9.6 10.8 99 0.1 NNE 9 13 5 7 1019.5 1019.4 0.0
23/08:00am 9.9 9.9 9.8 99 0.1 CALM 0 0 0 0 1019.7 1019.6 0.0
23/07:30am 7.6 7.0 7.3 98 0.1 CALM 0 0 0 0 1019.5 1019.4 0.0
23/07:00am 7.1 6.4 6.8 98 0.1 CALM 0 0 0 0 1019.2 1019.2 0.0
23/06:30am 6.5 5.6 6.2 98 0.1 CALM 0 0 0 0 1019.5 1019.4 0.0
23/06:00am 6.4 5.5 6.1 98 0.1 CALM 0 0 0 0 1019.4 1019.3 0.0
23/05:30am 7.0 6.2 6.7 98 0.1 CALM 0 7 0 4 1019.4 1019.3 0.0
23/05:00am 6.5 5.2 6.2 98 0.1 NE 2 7 1 4 1019.2 1019.2 0.0
23/04:30am 7.5 6.9 7.2 98 0.1 CALM 0 0 0 0 1019.4 1019.3 0.0
23/04:00am 7.8 7.2 7.5 98 0.1 CALM 0 0 0 0 1019.2 1019.2 0.0
23/03:30am 7.1 6.4 6.8 98 0.1 CALM 0 0 0 0 1019.5 1019.4 0.0
23/03:09am 7.4 5.4 7.1 98 0.1 NNE 7 9 4 5 1019.7 1019.6 0.0
23/03:00am 7.3 4.9 7.0 98 0.1 NNE 9 11 5 6 1019.7 1019.6 0.0
23/02:50am 7.4 5.4 7.1 98 0.1 NE 7 11 4 6 1019.9 1019.8 0.0
23/02:30am 8.3 7.8 8.0 98 0.1 CALM 0 0 0 0 1020.1 1020.0 0.0
23/02:00am 8.1 7.6 7.8 98 0.1 CALM 0 0 0 0 1020.3 1020.2 0.0
23/01:30am 7.9 6.2 7.6 98 0.1 NE 6 9 3 5 1020.2 1020.1 0.0
23/01:00am 8.0 7.5 7.7 98 0.1 CALM 0 0 0 0 1020.4 1020.3 0.0
23/12:30am 9.4 9.2 9.1 98 0.2 CALM 0 0 0 0 1020.8 1020.7 0.0
23/12:00am 9.1 8.8 8.8 98 0.1 CALM 0 0 0 0 1020.9 1020.8 0.0
 
Date/Time
EST
Temp
°C
App
Temp
°C
Dew
Point
Rel
Hum
%
Delta-T
°C
Wind Press
QNH
hPa
Press
MSL
hPa
Rain
since 9 am
mm
Dir
 
Spd
km/h
Gust
km/h
Spd
kts
Gust
kts
22/11:30pm 9.5 9.3 9.2 98 0.2 CALM 0 0 0 0 1021.0 1021.0 0.0
22/11:00pm 10.3 9.0 10.0 98 0.2 NE 7 9 4 5 1021.1 1021.1 0.0
22/10:30pm 10.9 10.4 10.6 98 0.2 ESE 4 7 2 4 1021.2 1021.2 0.0
22/10:00pm 11.1 10.2 10.8 98 0.2 SSE 6 9 3 5 1021.5 1021.5 0.0
22/09:30pm 11.3 8.4 11.0 98 0.2 NE 17 17 9 9 1021.7 1021.6 0.0
22/09:00pm 11.7 11.4 11.4 98 0.2 NE 4 7 2 4 1022.0 1021.9 0.0
22/08:30pm 12.8 12.2 11.7 93 0.6 NE 6 9 3 5 1022.1 1022.0 0.0
22/08:00pm 13.4 14.1 12.3 93 0.6 CALM 0 0 0 0 1021.9 1021.8 0.0
22/07:30pm 13.7 14.4 12.1 90 0.9 CALM 0 0 0 0 1021.9 1021.8 0.0
22/07:00pm 13.8 13.0 11.7 87 1.1 NE 7 11 4 6 1021.8 1021.7 0.0
22/06:30pm 14.3 12.5 12.0 86 1.3 NE 13 15 7 8 1021.7 1021.6 0.0
22/06:00pm 17.0 16.1 12.5 75 2.5 NE 9 11 5 6 1021.4 1021.4 0.0
22/05:30pm 17.5 15.8 12.4 72 2.9 NE 13 15 7 8 1021.3 1021.3 0.0
22/05:00pm 19.5 19.0 12.5 64 4.0 NE 7 9 4 5 1021.1 1021.1 0.0
22/04:30pm 21.1 20.6 12.8 59 4.8 N 7 9 4 5 1021.2 1021.2 0.0
22/04:00pm 22.5 21.2 12.4 52 5.8 N 11 15 6 8 1021.4 1021.4 0.0
22/03:30pm 23.0 21.7 12.6 52 6.1 NW 11 15 6 8 1021.7 1021.6 0.0
22/03:00pm 22.4 21.2 12.9 55 5.5 NNW 11 13 6 7 1022.0 1021.9 0.0
22/02:30pm 22.9 20.5 12.5 52 6.1 NNW 17 24 9 13 1022.0 1021.9 0.0
22/02:00pm 22.5 20.4 12.4 52 5.8 NW 15 20 8 11 1022.1 1022.0 0.0
22/01:30pm 22.5 21.5 12.4 52 5.9 NW 9 17 5 9 1022.1 1022.0 0.0
22/01:00pm 21.5 20.2 12.4 56 5.2 W 11 17 6 9 1022.7 1022.6 0.0
22/12:30pm 21.3 18.3 12.7 58 5.0 NNW 20 28 11 15 1023.4 1023.4 0.0
22/12:00pm 20.9 18.5 12.6 59 4.8 WNW 17 22 9 12 1024.0 1023.9 0.0
22/11:30am 20.2 18.5 12.4 61 4.5 NNW 13 20 7 11 1024.3 1024.2 0.0
22/11:00am 19.1 18.6 12.1 64 4.0 WNW 6 13 3 7 1024.9 1024.9 0.0
22/10:30am 17.7 17.6 12.2 70 3.1 WSW 4 11 2 6 1025.4 1025.4 0.0
22/10:00am 16.0 15.4 12.4 79 2.0 S 7 9 4 5 1025.7 1025.7 0.0
22/09:30am 14.4 14.1 12.6 89 1.0 S 6 11 3 6 1025.9 1025.9 0.0
22/09:00am 12.2 12.0 11.9 98 0.2 S 4 9 2 5 1026.0 1026.0 0.0
22/08:58am 12.0 11.8 11.7 98 0.2 S 4 9 2 5 1025.9 1025.9 0.0
22/08:30am 10.6 10.0 10.4 99 0.1 S 4 7 2 4 1025.8 1025.8 0.0
22/08:21am 10.3 9.2 10.1 99 0.1 S 6 7 3 4 1025.8 1025.8 0.0
22/08:19am 10.4 9.7 10.2 99 0.1 S 4 7 2 4 1025.8 1025.8 0.0
22/08:00am 9.3 8.4 9.2 99 0.1 SSE 4 7 2 4 1025.7 1025.7 0.0
22/07:40am 8.7 7.2 8.4 98 0.1 S 6 9 3 5 1025.6 1025.6 0.0
22/07:30am 8.4 6.8 8.1 98 0.1 SSE 6 9 3 5 1025.7 1025.7 0.0
22/07:00am 7.6 7.0 7.3 98 0.1 CALM 0 0 0 0 1025.5 1025.5 0.0
22/06:30am 7.8 6.5 7.5 98 0.1 NE 4 7 2 4 1025.4 1025.4 0.0
22/06:00am 7.4 5.0 7.1 98 0.1 NNE 9 19 5 10 1025.2 1025.2 0.0
22/05:30am 9.7 8.3 9.4 98 0.2 S 7 11 4 6 1024.6 1024.5 0.0
22/05:00am 9.3 7.8 9.0 98 0.2 SSW 7 9 4 5 1024.6 1024.5 0.0
22/04:30am 9.1 8.8 8.8 98 0.2 CALM 0 0 0 0 1024.7 1024.7 0.0
22/04:00am 8.2 7.7 7.9 98 0.1 CALM 0 0 0 0 1024.7 1024.7 0.0
22/03:30am 9.2 7.8 8.9 98 0.2 S 6 9 3 5 1024.8 1024.8 0.0
22/03:00am 8.6 6.9 8.3 98 0.1 NE 7 7 4 4 1025.0 1025.0 0.0
22/02:30am 8.8 8.5 8.5 98 0.1 CALM 0 0 0 0 1025.2 1025.2 0.0
22/02:00am 8.9 7.4 8.6 98 0.1 SSW 6 7 3 4 1025.1 1025.1 0.0
22/01:30am 9.5 8.0 9.2 98 0.2 NNE 7 9 4 5 1025.1 1025.1 0.0
22/01:00am 10.3 9.2 10.0 98 0.2 SSE 6 11 3 6 1024.8 1024.8 0.0
22/12:30am 9.9 9.7 9.1 95 0.4 CALM 0 0 0 0 1025.1 1025.1 0.0
22/12:00am 10.3 10.3 9.8 97 0.3 CALM 0 0 0 0 1025.0 1025.0 0.0
 
Date/Time
EST
Temp
°C
App
Temp
°C
Dew
Point
Rel
Hum
%
Delta-T
°C
Wind Press
QNH
hPa
Press
MSL
hPa
Rain
since 9 am
mm
Dir
 
Spd
km/h
Gust
km/h
Spd
kts
Gust
kts
21/11:30pm 9.8 8.4 9.0 95 0.4 ENE 6 9 3 5 1025.4 1025.4 0.0
21/11:00pm 10.8 10.5 10.0 95 0.4 NE 2 9 1 5 1025.5 1025.5 0.0
21/10:30pm 10.6 10.4 9.2 91 0.7 CALM 0 0 0 0 1025.4 1025.4 0.0
21/10:00pm 11.0 10.6 9.8 92 0.6 WNW 2 7 1 4 1025.5 1025.5 0.0
21/09:30pm 11.2 11.1 9.6 90 0.8 CALM 0 0 0 0 1025.3 1025.3 0.0
21/09:00pm 11.4 10.9 9.5 88 1.0 NNE 2 7 1 4 1025.3 1025.3 0.0
21/08:30pm 12.2 12.1 9.4 83 1.5 CALM 0 0 0 0 1025.4 1025.4 0.0
21/08:00pm 12.5 12.4 9.5 82 1.6 CALM 0 0 0 0 1025.4 1025.4 0.0
21/07:30pm 12.6 11.1 9.2 80 1.8 NE 7 9 4 5 1025.1 1025.1 0.0
21/07:00pm 14.1 12.9 9.5 74 2.4 E 6 7 3 4 1024.9 1024.9 0.0
21/06:30pm 14.3 12.9 9.7 74 2.4 NE 7 11 4 6 1024.8 1024.8 0.0
21/06:00pm 15.6 14.4 10.2 70 2.9 NE 7 11 4 6 1024.3 1024.2 0.0
21/05:30pm 14.4 11.5 9.6 73 2.5 NNE 15 15 8 8 1024.1 1024.0 0.0
21/05:00pm 16.2 14.1 9.6 65 3.5 NE 11 13 6 7 1023.9 1023.8 0.0
21/04:30pm 16.6 14.8 9.5 63 3.8 NE 9 11 5 6 1023.7 1023.7 0.0

Other Formats:

Comma delimited format used in spreadsheet applications
http://www.bom.gov.au/fwo/IDN60801/IDN60801.94727.axf

JavaScript Object Notation format (JSON) in row-major order
http://www.bom.gov.au/fwo/IDN60801/IDN60801.94727.json